Time;durP1;ratioP1;P1;durP2;ratioP2;P2;SDS_P1;SDS_P2;PMS_P1;PMS_P2;Temp;Humidity;BMP_temperature;BMP_pressure;BME280_temperature;BME280_humidity;BME280_pressure;Samples;Min_cycle;Max_cycle;Signal;HPM_P1;HPM_P2
2023/10/28 00:01:23;;;;;;;68.80;33.90;;;;;;;8.40;100.00;98697.33;215179;1285;139735;-87
2023/10/28 00:06:23;;;;;;;111.90;51.30;;;;;;;8.38;100.00;98703.70;215710;1285;138775;-86
2023/10/28 00:11:24;;;;;;;75.30;35.80;;;;;;;8.38;100.00;98704.79;215283;1291;139948;-86
2023/10/28 00:16:24;;;;;;;75.70;36.30;;;;;;;8.38;100.00;98705.96;215805;1291;139403;-86
2023/10/28 00:21:25;;;;;;;68.00;33.00;;;;;;;8.38;100.00;98704.71;215133;1290;141012;-85
2023/10/28 00:26:27;;;;;;;64.40;32.10;;;;;;;8.36;100.00;98702.45;215475;1290;139364;-85
2023/10/28 00:31:28;;;;;;;52.70;26.90;;;;;;;8.32;100.00;98700.52;214770;1288;140836;-85
2023/10/28 00:36:28;;;;;;;42.60;22.20;;;;;;;8.30;100.00;98704.16;215148;1290;139522;-85
2023/10/28 00:41:32;;;;;;;59.00;29.10;;;;;;;8.30;100.00;98703.91;214545;1288;140136;-86
2023/10/28 00:46:32;;;;;;;48.70;25.70;;;;;;;8.31;100.00;98702.89;215073;1288;138458;-86
2023/10/28 00:51:33;;;;;;;38.80;22.40;;;;;;;8.30;100.00;98702.34;214510;1285;142048;-86
2023/10/28 00:56:34;;;;;;;71.90;36.90;;;;;;;8.28;100.00;98705.19;215218;1285;138754;-86
2023/10/28 01:01:35;;;;;;;57.10;30.20;;;;;;;8.29;100.00;98711.05;214566;1287;139628;-86
2023/10/28 01:06:37;;;;;;;43.20;21.30;;;;;;;8.29;100.00;98713.94;215048;1289;140354;-86
2023/10/28 01:11:39;;;;;;;42.50;22.40;;;;;;;8.30;100.00;98717.30;218177;1286;140338;-85
2023/10/28 01:16:40;;;;;;;43.60;24.10;;;;;;;8.28;100.00;98719.66;215741;1285;97976;-86
2023/10/28 01:21:42;;;;;;;47.90;24.50;;;;;;;8.27;100.00;98722.27;214695;1291;140062;-86
2023/10/28 01:26:43;;;;;;;44.50;23.80;;;;;;;8.31;100.00;98721.53;214881;1285;139352;-86
2023/10/28 01:31:44;;;;;;;46.50;23.10;;;;;;;8.29;100.00;98723.49;214322;1291;141341;-86
2023/10/28 01:36:45;;;;;;;55.40;30.20;;;;;;;8.27;100.00;98725.71;214908;1290;140111;-86
2023/10/28 01:41:45;;;;;;;56.40;26.10;;;;;;;8.29;100.00;98724.05;214232;1288;140740;-86
2023/10/28 01:46:46;;;;;;;50.90;27.00;;;;;;;8.29;100.00;98723.95;214983;1291;99280;-86
2023/10/28 01:51:47;;;;;;;44.80;25.80;;;;;;;8.31;100.00;98722.78;214427;1291;140281;-86
2023/10/28 01:56:47;;;;;;;49.20;27.20;;;;;;;8.33;100.00;98724.80;214936;1287;138951;-86
2023/10/28 02:01:48;;;;;;;45.40;25.00;;;;;;;8.33;100.00;98724.23;214440;1285;140909;-86
2023/10/28 02:06:50;;;;;;;44.20;25.00;;;;;;;8.36;100.00;98725.64;214877;1291;139050;-86
2023/10/28 02:11:52;;;;;;;42.00;23.30;;;;;;;8.38;100.00;98730.17;214317;1291;139820;-87
2023/10/28 02:16:54;;;;;;;40.90;21.90;;;;;;;8.41;100.00;98728.58;215125;1291;97963;-86
2023/10/28 02:21:55;;;;;;;43.20;22.90;;;;;;;8.45;100.00;98734.97;214375;1286;139954;-87
2023/10/28 02:26:55;;;;;;;45.40;23.80;;;;;;;8.47;100.00;98729.55;214965;1289;138815;-87
2023/10/28 02:31:56;;;;;;;50.20;24.40;;;;;;;8.48;100.00;98734.39;214350;1290;140644;-86
2023/10/28 02:36:56;;;;;;;43.90;23.20;;;;;;;8.49;100.00;98741.36;214821;1291;139564;-88
2023/10/28 02:41:57;;;;;;;40.00;22.50;;;;;;;8.49;100.00;98747.23;214439;1291;139958;-87
2023/10/28 02:46:58;;;;;;;43.50;22.60;;;;;;;8.49;100.00;98750.05;215050;1288;98047;-87
2023/10/28 02:51:58;;;;;;;45.40;23.60;;;;;;;8.51;100.00;98751.92;214466;1290;139683;-87
2023/10/28 02:56:59;;;;;;;48.80;23.90;;;;;;;8.51;100.00;98756.63;214381;1289;140074;-86
2023/10/28 03:02:00;;;;;;;46.70;22.80;;;;;;;8.52;100.00;98761.40;214858;1287;139387;-88
2023/10/28 03:07:00;;;;;;;47.60;24.00;;;;;;;8.53;100.00;98766.39;214316;1285;140238;-87
2023/10/28 03:12:01;;;;;;;51.10;23.60;;;;;;;8.54;100.00;98771.88;214623;1288;138899;-88
2023/10/28 03:17:01;;;;;;;52.00;25.40;;;;;;;8.53;100.00;98774.07;214493;1289;140293;-87
2023/10/28 03:22:01;;;;;;;52.90;24.90;;;;;;;8.54;100.00;98773.83;214758;1291;139053;-87
2023/10/28 03:27:02;;;;;;;52.70;23.40;;;;;;;8.55;100.00;98777.98;214203;1288;140402;-87
2023/10/28 03:32:03;;;;;;;50.40;22.50;;;;;;;8.55;100.00;98778.60;214782;1285;139540;-87
2023/10/28 03:37:03;;;;;;;51.60;21.20;;;;;;;8.57;100.00;98780.08;214206;1290;140230;-88
2023/10/28 03:42:08;;;;;;;49.50;20.40;;;;;;;8.58;100.00;98784.93;214862;1286;138908;-87
2023/10/28 03:47:09;;;;;;;46.80;20.30;;;;;;;8.56;100.00;98782.58;214361;1289;140862;-87
2023/10/28 03:52:10;;;;;;;49.40;19.50;;;;;;;8.56;100.00;98778.20;214800;1291;138511;-88
2023/10/28 03:57:11;;;;;;;48.50;20.60;;;;;;;8.56;100.00;98776.55;214349;1286;141297;-87
2023/10/28 04:02:11;;;;;;;42.80;19.50;;;;;;;8.55;100.00;98769.91;215386;1290;138760;-87
2023/10/28 04:07:12;;;;;;;48.10;20.40;;;;;;;8.52;100.00;98772.59;214720;1290;140476;-88
2023/10/28 04:12:13;;;;;;;45.80;19.40;;;;;;;8.57;100.00;98777.80;215497;1288;138763;-87
2023/10/28 04:17:13;;;;;;;42.20;19.30;;;;;;;8.58;100.00;98779.84;214863;1288;140529;-88
2023/10/28 04:22:14;;;;;;;46.90;20.00;;;;;;;8.59;100.00;98779.20;215434;1290;138715;-87
2023/10/28 04:27:14;;;;;;;45.80;20.10;;;;;;;8.59;100.00;98777.79;214519;1291;141077;-88
2023/10/28 04:32:17;;;;;;;46.90;20.50;;;;;;;8.60;100.00;98777.07;214813;1291;139266;-87
2023/10/28 04:37:18;;;;;;;38.30;18.20;;;;;;;8.61;100.00;98776.99;214236;1288;140373;-87
2023/10/28 04:42:19;;;;;;;39.10;16.60;;;;;;;8.62;100.00;98788.10;214595;1286;139293;-87
2023/10/28 04:47:19;;;;;;;37.80;17.20;;;;;;;8.61;100.00;98788.35;214569;1286;139834;-88
2023/10/28 04:52:20;;;;;;;38.50;17.10;;;;;;;8.61;100.00;98784.67;214815;1286;141451;-88
2023/10/28 04:57:21;;;;;;;33.70;16.20;;;;;;;8.62;100.00;98783.73;214174;1286;140439;-87
2023/10/28 05:02:22;;;;;;;35.90;15.40;;;;;;;8.62;100.00;98789.98;215065;1290;138768;-87
2023/10/28 05:07:24;;;;;;;39.20;16.50;;;;;;;8.61;100.00;98782.46;214418;1286;140982;-87
2023/10/28 05:12:24;;;;;;;38.20;16.10;;;;;;;8.62;100.00;98791.01;214858;1286;138931;-86
2023/10/28 05:17:28;;;;;;;41.10;15.50;;;;;;;8.62;100.00;98794.53;214457;1291;140542;-86
2023/10/28 05:22:28;;;;;;;41.20;15.60;;;;;;;8.64;100.00;98800.56;214883;1290;138577;-88
2023/10/28 05:27:29;;;;;;;33.80;14.30;;;;;;;8.65;100.00;98812.30;214297;1292;141992;-87
2023/10/28 05:32:29;;;;;;;28.30;13.40;;;;;;;8.66;100.00;98815.02;214863;1286;138664;-86
2023/10/28 05:37:30;;;;;;;30.90;12.80;;;;;;;8.66;100.00;98817.45;214466;1286;140674;-87
2023/10/28 05:42:31;;;;;;;31.50;12.50;;;;;;;8.67;100.00;98818.07;214574;1286;138812;-87
2023/10/28 05:47:31;;;;;;;34.00;15.60;;;;;;;8.67;100.00;98826.52;214488;1286;140810;-86
2023/10/28 05:52:34;;;;;;;29.30;13.30;;;;;;;8.66;100.00;98833.03;214998;1287;138868;-86
2023/10/28 05:57:36;;;;;;;29.20;12.80;;;;;;;8.67;100.00;98835.92;214417;1286;140790;-87
2023/10/28 06:02:39;;;;;;;34.10;14.60;;;;;;;8.69;100.00;98842.20;214941;1291;139344;-86
2023/10/28 06:07:41;;;;;;;36.70;15.00;;;;;;;8.71;100.00;98850.25;214103;1286;140567;-86
2023/10/28 06:12:42;;;;;;;33.10;14.40;;;;;;;8.72;100.00;98855.97;214906;1290;139006;-86
2023/10/28 06:17:42;;;;;;;31.20;14.20;;;;;;;8.71;100.00;98855.19;214328;1289;141054;-87
2023/10/28 06:22:42;;;;;;;28.90;13.00;;;;;;;8.68;100.00;98861.55;215208;1286;97868;-86
2023/10/28 06:27:44;;;;;;;29.80;13.40;;;;;;;8.71;100.00;98866.23;214168;1288;140062;-86
2023/10/28 06:32:45;;;;;;;27.00;13.10;;;;;;;8.74;100.00;98875.54;215087;1285;138862;-87
2023/10/28 06:37:46;;;;;;;34.20;13.90;;;;;;;8.79;100.00;98877.54;214675;1290;140228;-87
2023/10/28 06:42:47;;;;;;;30.60;14.50;;;;;;;8.85;100.00;98881.75;214972;1287;138637;-86
2023/10/28 06:47:47;;;;;;;30.50;13.60;;;;;;;8.88;100.00;98888.45;214471;1292;141305;-87
2023/10/28 06:52:48;;;;;;;33.30;16.70;;;;;;;8.92;100.00;98898.30;214860;1290;326558;-87
2023/10/28 06:57:49;;;;;;;36.40;18.20;;;;;;;8.93;100.00;98900.17;214536;1290;140678;-86
2023/10/28 07:02:50;;;;;;;33.70;16.70;;;;;;;8.95;100.00;98902.27;214864;1288;138057;-87
2023/10/28 07:07:51;;;;;;;40.10;17.40;;;;;;;8.97;100.00;98897.88;214331;1289;140018;-87
2023/10/28 07:12:52;;;;;;;41.40;18.70;;;;;;;8.97;100.00;98900.70;214880;1291;138718;-89
2023/10/28 07:17:54;;;;;;;35.80;17.10;;;;;;;8.99;100.00;98899.51;214332;1288;140263;-88
2023/10/28 07:22:55;;;;;;;40.40;17.50;;;;;;;9.01;100.00;98909.37;215088;1291;98004;-89
2023/10/28 07:27:56;;;;;;;34.80;16.10;;;;;;;9.02;100.00;98914.61;214431;1286;139896;-89
2023/10/28 07:32:56;;;;;;;35.40;16.20;;;;;;;9.08;100.00;98921.08;214971;1285;138865;-89
2023/10/28 07:37:57;;;;;;;37.10;18.00;;;;;;;9.10;100.00;98921.08;214779;1286;140958;-89
2023/10/28 07:42:58;;;;;;;33.00;16.50;;;;;;;9.12;100.00;98923.16;215367;1288;139336;-88
2023/10/28 07:47:59;;;;;;;41.60;18.30;;;;;;;9.15;100.00;98927.14;214862;1289;140421;-89
2023/10/28 07:52:59;;;;;;;36.90;17.70;;;;;;;9.13;100.00;98929.20;215635;1286;97991;-89
2023/10/28 07:58:00;;;;;;;34.90;17.80;;;;;;;9.10;100.00;98939.41;214608;1286;139897;-89
2023/10/28 08:03:03;;;;;;;36.10;17.40;;;;;;;9.11;100.00;98943.02;215231;1286;139688;-89
2023/10/28 08:08:04;;;;;;;36.50;17.80;;;;;;;9.15;100.00;98954.59;214380;1290;140278;-89
2023/10/28 08:13:04;;;;;;;36.60;16.90;;;;;;;9.22;100.00;98959.48;214684;1286;138906;-89
2023/10/28 08:18:07;;;;;;;32.40;16.30;;;;;;;9.31;100.00;98959.17;214584;1287;141141;-90
2023/10/28 08:23:07;;;;;;;34.80;17.90;;;;;;;9.38;100.00;98965.48;215010;1289;99269;-89
2023/10/28 08:28:08;;;;;;;37.60;18.10;;;;;;;9.36;100.00;98971.93;214409;1287;140259;-89
2023/10/28 08:33:09;;;;;;;38.70;19.70;;;;;;;9.38;100.00;98987.98;214665;1291;139090;-90
2023/10/28 08:38:09;;;;;;;35.50;17.20;;;;;;;9.42;100.00;98996.27;214074;1289;140329;-89
2023/10/28 08:43:10;;;;;;;38.50;17.80;;;;;;;9.39;100.00;99000.45;214984;1289;139918;-89
2023/10/28 08:48:13;;;;;;;36.00;17.40;;;;;;;9.46;100.00;99003.55;214483;1289;142250;-89
2023/10/28 08:53:16;;;;;;;37.80;18.60;;;;;;;9.48;100.00;99008.94;215379;1286;98117;-88
2023/10/28 08:58:19;;;;;;;38.70;18.60;;;;;;;9.57;100.00;99013.11;214464;1285;140175;-88
2023/10/28 09:03:22;;;;;;;38.70;17.70;;;;;;;9.64;100.00;99014.77;214997;1291;138805;-89
2023/10/28 09:08:23;;;;;;;35.40;16.70;;;;;;;9.68;100.00;99020.86;214634;1287;140653;-89
2023/10/28 09:13:24;;;;;;;32.90;16.70;;;;;;;9.72;100.00;99028.23;215073;1285;139154;-88
2023/10/28 09:18:24;;;;;;;31.40;16.80;;;;;;;9.70;100.00;99030.66;214577;1287;140581;-88
2023/10/28 09:23:30;;;;;;;31.10;15.30;;;;;;;9.75;100.00;99046.80;215054;1291;98071;-88
2023/10/28 09:28:34;;;;;;;36.50;17.60;;;;;;;9.85;100.00;99050.80;214555;1286;140122;-87
2023/10/28 09:33:34;;;;;;;29.10;14.90;;;;;;;9.91;100.00;99054.20;214956;1289;139696;-88
2023/10/28 09:38:36;;;;;;;33.30;14.70;;;;;;;9.90;100.00;99061.51;214594;1290;140182;-88
2023/10/28 09:43:37;;;;;;;30.00;15.50;;;;;;;9.87;100.00;99062.16;215044;1288;139352;-87
2023/10/28 09:48:39;;;;;;;27.70;14.70;;;;;;;9.89;100.00;99065.14;214777;1288;140095;-86
2023/10/28 09:53:43;;;;;;;23.10;12.20;;;;;;;9.95;100.00;99068.70;215056;1286;138685;-88
2023/10/28 09:58:51;;;;;;;27.30;13.40;;;;;;;10.01;100.00;99066.68;214659;1289;141289;-87
2023/10/28 10:04:25;;;;;;;23.20;12.10;;;;;;;10.08;100.00;99072.47;215084;1289;139947;-87
2023/10/28 10:09:26;;;;;;;22.90;11.30;;;;;;;10.10;100.00;99081.23;215085;1286;140382;-88
2023/10/28 10:14:31;;;;;;;23.40;11.50;;;;;;;10.12;100.00;99077.69;215505;1285;139371;-87
2023/10/28 10:19:35;;;;;;;27.20;13.60;;;;;;;10.19;100.00;99075.51;214501;1285;140490;-87
2023/10/28 10:24:47;;;;;;;25.20;12.60;;;;;;;10.26;100.00;99070.88;214775;1288;139894;-88
2023/10/28 10:29:48;;;;;;;24.00;12.40;;;;;;;10.40;100.00;99072.23;214166;1285;140409;-87
2023/10/28 10:34:48;;;;;;;23.20;11.90;;;;;;;10.39;100.00;99075.46;214974;1291;98014;-87
2023/10/28 10:39:49;;;;;;;23.30;12.20;;;;;;;10.39;100.00;99077.74;214566;1285;140338;-86
2023/10/28 10:44:51;;;;;;;31.80;17.90;;;;;;;10.38;100.00;99081.45;214928;1285;139071;-86
2023/10/28 10:49:51;;;;;;;26.40;12.50;;;;;;;10.36;100.00;99084.45;214241;1287;140330;-87
2023/10/28 10:54:53;;;;;;;21.30;11.40;;;;;;;10.31;100.00;99085.91;215133;1290;139065;-86
2023/10/28 10:59:54;;;;;;;24.60;13.00;;;;;;;10.35;100.00;99091.54;214636;1285;140391;-85
2023/10/28 11:04:55;;;;;;;24.50;11.90;;;;;;;10.37;100.00;99093.17;215314;1288;98861;-86
2023/10/28 11:09:55;;;;;;;23.10;12.20;;;;;;;10.40;100.00;99100.52;214595;1287;140669;-86
2023/10/28 11:14:57;;;;;;;26.10;12.80;;;;;;;10.44;100.00;99102.92;215190;1286;139715;-87
2023/10/28 11:20:00;;;;;;;16.50;8.80;;;;;;;10.48;100.00;99115.61;214753;1287;141052;-87
2023/10/28 11:25:04;;;;;;;19.10;9.20;;;;;;;10.46;100.00;99115.55;214897;1289;139651;-86
2023/10/28 11:30:07;;;;;;;16.80;9.90;;;;;;;10.45;100.00;99120.11;214588;1288;140301;-86
2023/10/28 11:35:14;;;;;;;20.60;11.20;;;;;;;10.48;100.00;99124.18;215426;1286;111876;-86
2023/10/28 11:40:14;;;;;;;14.20;7.60;;;;;;;10.50;100.00;99129.02;214496;1286;140689;-86
2023/10/28 11:45:16;;;;;;;16.80;9.20;;;;;;;10.45;100.00;99134.66;214961;1285;139301;-87
2023/10/28 11:50:17;;;;;;;14.70;8.60;;;;;;;10.51;100.00;99139.31;214956;1286;140657;-86
2023/10/28 11:55:17;;;;;;;15.40;7.90;;;;;;;10.53;100.00;99135.61;215670;1290;139551;-87
2023/10/28 12:00:18;;;;;;;18.00;10.10;;;;;;;10.51;100.00;99137.59;214628;1289;140680;-87
2023/10/28 12:05:18;;;;;;;16.40;9.30;;;;;;;10.49;100.00;99133.05;214967;1290;99042;-87
2023/10/28 12:10:19;;;;;;;15.40;7.60;;;;;;;10.55;100.00;99138.34;214474;1289;140680;-86
2023/10/28 12:15:19;;;;;;;15.50;7.90;;;;;;;10.58;100.00;99137.77;215043;1286;139386;-86
2023/10/28 12:20:20;;;;;;;24.10;14.60;;;;;;;10.61;100.00;99150.23;214348;1288;140443;-85
2023/10/28 12:25:21;;;;;;;18.90;10.60;;;;;;;10.60;100.00;99152.44;214931;1285;140081;-86
2023/10/28 12:30:21;;;;;;;13.90;7.80;;;;;;;10.63;100.00;99156.98;214512;1286;140269;-86
2023/10/28 12:35:22;;;;;;;14.20;7.60;;;;;;;10.66;100.00;99160.62;214981;1285;98075;-86
2023/10/28 12:40:23;;;;;;;13.80;8.90;;;;;;;10.59;100.00;99161.16;214659;1285;140449;-86
2023/10/28 12:45:24;;;;;;;17.50;9.70;;;;;;;10.62;100.00;99167.43;214971;1285;139166;-85
2023/10/28 12:50:24;;;;;;;14.80;8.40;;;;;;;10.65;100.00;99171.65;214355;1286;141893;-85
2023/10/28 12:55:25;;;;;;;19.20;9.60;;;;;;;10.63;100.00;99174.73;215005;1286;139987;-86
2023/10/28 13:00:27;;;;;;;19.80;9.50;;;;;;;10.63;100.00;99176.77;214376;1285;142183;-86
2023/10/28 13:05:27;;;;;;;19.20;9.40;;;;;;;10.68;100.00;99182.55;215208;1286;97980;-86
2023/10/28 13:10:28;;;;;;;19.50;11.00;;;;;;;10.65;100.00;99185.64;214582;1285;139898;-86
2023/10/28 13:15:29;;;;;;;19.80;10.30;;;;;;;10.68;100.00;99190.56;215079;1285;139485;-85
2023/10/28 13:20:29;;;;;;;18.20;11.00;;;;;;;10.73;100.00;99193.34;214273;1285;140986;-86
2023/10/28 13:25:30;;;;;;;15.50;9.20;;;;;;;10.68;100.00;99187.50;215069;1287;139711;-86
2023/10/28 13:30:30;;;;;;;19.80;10.50;;;;;;;10.66;100.00;99191.77;214567;1286;140944;-85
2023/10/28 13:35:32;;;;;;;15.50;8.60;;;;;;;10.67;100.00;99196.08;215005;1286;112096;-86
2023/10/28 13:40:33;;;;;;;17.00;9.50;;;;;;;10.68;100.00;99202.66;214654;1285;140039;-86
2023/10/28 13:45:34;;;;;;;14.40;8.50;;;;;;;10.66;100.00;99204.34;215248;1288;139348;-86
2023/10/28 13:50:36;;;;;;;19.80;11.30;;;;;;;10.61;100.00;99198.73;214709;1285;140324;-86
2023/10/28 13:55:37;;;;;;;18.10;10.00;;;;;;;10.58;100.00;99195.06;215412;1287;139506;-86
2023/10/28 14:00:38;;;;;;;19.30;10.10;;;;;;;10.58;100.00;99202.13;214735;1285;141459;-86
2023/10/28 14:05:38;;;;;;;20.80;11.40;;;;;;;10.58;100.00;99204.17;215124;1286;139730;-86
2023/10/28 14:10:39;;;;;;;20.90;11.70;;;;;;;10.57;100.00;99204.81;214958;1285;140586;-86
2023/10/28 14:15:42;;;;;;;18.10;9.90;;;;;;;10.58;100.00;99214.79;215926;1286;139223;-87
2023/10/28 14:20:43;;;;;;;14.30;8.10;;;;;;;10.58;100.00;99223.45;214912;1291;140430;-85
2023/10/28 14:25:43;;;;;;;13.40;7.90;;;;;;;10.54;100.00;99232.51;215564;1288;139842;-85
2023/10/28 14:30:45;;;;;;;14.00;8.10;;;;;;;10.56;100.00;99235.23;214829;1287;140718;-85
2023/10/28 14:35:46;;;;;;;15.90;8.80;;;;;;;10.58;100.00;99239.30;214974;1289;138898;-86
2023/10/28 14:40:47;;;;;;;18.60;10.40;;;;;;;10.62;100.00;99238.02;214778;1286;140678;-85
2023/10/28 14:45:47;;;;;;;19.30;10.70;;;;;;;10.62;100.00;99240.62;215215;1285;139272;-86
2023/10/28 14:50:49;;;;;;;20.70;11.10;;;;;;;10.54;100.00;99240.13;214413;1288;140420;-85
2023/10/28 14:55:50;;;;;;;17.40;9.70;;;;;;;10.46;100.00;99236.89;214869;1288;139248;-85
2023/10/28 15:00:51;;;;;;;17.00;9.10;;;;;;;10.42;100.00;99243.20;214604;1285;140299;-85
2023/10/28 15:05:51;;;;;;;18.30;11.70;;;;;;;10.42;100.00;99252.48;215536;1286;139534;-85
2023/10/28 15:10:52;;;;;;;20.40;12.20;;;;;;;10.39;100.00;99261.77;215071;1285;140386;-85
2023/10/28 15:15:53;;;;;;;20.10;12.00;;;;;;;10.39;100.00;99262.79;215157;1288;139173;-85
2023/10/28 15:20:53;;;;;;;25.70;15.70;;;;;;;10.39;100.00;99262.24;214602;1289;141203;-86
2023/10/28 15:25:54;;;;;;;28.20;15.00;;;;;;;10.34;100.00;99261.58;215248;1288;139752;-85
2023/10/28 15:31:00;;;;;;;48.00;22.50;;;;;;;10.30;100.00;99264.41;214632;1285;140957;-86
2023/10/28 15:36:01;;;;;;;51.10;24.30;;;;;;;10.27;100.00;99269.40;214870;1288;139942;-87
2023/10/28 15:41:02;;;;;;;41.70;21.60;;;;;;;10.22;100.00;99270.36;214474;1285;140631;-87
2023/10/28 15:46:12;;;;;;;33.30;17.50;;;;;;;10.18;100.00;99269.06;214942;1286;139022;-86
2023/10/28 15:51:19;;;;;;;48.80;24.80;;;;;;;10.13;100.00;99271.29;214991;1285;141076;-86
2023/10/28 15:56:22;;;;;;;40.60;19.60;;;;;;;10.07;100.00;99270.14;215146;1291;139454;-85
2023/10/28 16:01:22;;;;;;;50.90;32.10;;;;;;;10.04;100.00;99280.29;214503;1288;140351;-87
2023/10/28 16:06:24;;;;;;;30.20;17.80;;;;;;;10.00;100.00;99286.55;214989;1285;139285;-87
2023/10/28 16:11:25;;;;;;;26.30;15.30;;;;;;;9.93;100.00;99288.48;214440;1285;141038;-86
2023/10/28 16:16:28;;;;;;;24.00;14.30;;;;;;;9.90;100.00;99289.44;214876;1285;138811;-87
2023/10/28 16:21:28;;;;;;;46.30;26.30;;;;;;;9.88;100.00;99299.73;214391;1286;140505;-87
2023/10/28 16:26:29;;;;;;;64.20;34.90;;;;;;;9.85;100.00;99301.39;215096;1289;139544;-86
2023/10/28 16:31:31;;;;;;;29.80;16.50;;;;;;;9.79;100.00;99305.96;214362;1288;140322;-86
2023/10/28 16:36:32;;;;;;;27.50;15.90;;;;;;;9.74;100.00;99300.49;214982;1288;139047;-86
2023/10/28 16:41:32;;;;;;;30.00;15.40;;;;;;;9.72;100.00;99305.45;214685;1285;140938;-87
2023/10/28 16:46:33;;;;;;;259.00;106.50;;;;;;;9.73;100.00;99311.88;215009;1287;138796;-86
2023/10/28 16:51:33;;;;;;;144.20;59.70;;;;;;;9.71;100.00;99319.42;214699;1288;140734;-87
2023/10/28 16:56:34;;;;;;;116.60;40.30;;;;;;;9.68;100.00;99324.77;215314;1288;140090;-87
2023/10/28 17:01:37;;;;;;;52.40;24.90;;;;;;;9.67;100.00;99335.21;215031;1288;140028;-86
2023/10/28 17:06:38;;;;;;;90.00;43.40;;;;;;;9.66;100.00;99340.86;215614;1285;138694;-87
2023/10/28 17:11:38;;;;;;;39.90;22.80;;;;;;;9.61;100.00;99344.00;215201;1285;141629;-86
2023/10/28 17:16:40;;;;;;;47.90;27.20;;;;;;;9.56;100.00;99344.98;215852;1288;99308;-86
2023/10/28 17:21:40;;;;;;;35.10;21.10;;;;;;;9.54;100.00;99346.48;215073;1288;139895;-86
2023/10/28 17:26:41;;;;;;;76.60;32.20;;;;;;;9.54;100.00;99347.40;215759;1285;140274;-87
2023/10/28 17:31:41;;;;;;;54.90;27.30;;;;;;;9.54;100.00;99350.86;214707;1285;139778;-86
2023/10/28 17:36:42;;;;;;;54.60;25.00;;;;;;;9.58;100.00;99360.27;215166;1288;139546;-85
2023/10/28 17:41:48;;;;;;;40.40;20.60;;;;;;;9.60;100.00;99363.40;214710;1290;140596;-85
2023/10/28 17:46:49;;;;;;;38.20;22.90;;;;;;;9.60;100.00;99365.77;215042;1289;98040;-86
2023/10/28 17:51:49;;;;;;;67.00;34.20;;;;;;;9.59;100.00;99376.60;214457;1288;139875;-86
2023/10/28 17:56:52;;;;;;;469.60;134.40;;;;;;;9.57;100.00;99382.00;214989;1288;139013;-86
2023/10/28 18:01:53;;;;;;;155.20;56.00;;;;;;;9.55;100.00;99374.71;214723;1288;140565;-87
2023/10/28 18:06:54;;;;;;;142.10;51.20;;;;;;;9.53;100.00;99369.06;214970;1285;139763;-86
2023/10/28 18:11:55;;;;;;;83.90;34.00;;;;;;;9.55;100.00;99371.50;214960;1288;141266;-86
2023/10/28 18:16:55;;;;;;;70.80;31.90;;;;;;;9.55;100.00;99374.79;215580;1288;97951;-87
2023/10/28 18:21:56;;;;;;;118.70;45.30;;;;;;;9.54;100.00;99373.93;214957;1288;139652;-86
2023/10/28 18:26:56;;;;;;;145.80;54.40;;;;;;;9.51;100.00;99371.19;215887;1285;139465;-86
2023/10/28 18:31:58;;;;;;;102.50;41.90;;;;;;;9.48;100.00;99376.06;215018;1285;139902;-86
2023/10/28 18:36:59;;;;;;;72.40;32.40;;;;;;;9.49;100.00;99382.17;215704;1288;141202;-86
2023/10/28 18:42:00;;;;;;;268.00;127.80;;;;;;;9.51;100.00;99384.61;215555;1288;138763;-86
2023/10/28 18:47:03;;;;;;;198.30;71.20;;;;;;;9.52;100.00;99384.36;214767;1287;140511;-86
2023/10/28 18:52:05;;;;;;;84.10;35.90;;;;;;;9.52;100.00;99387.36;214811;1288;462505;-86
2023/10/28 18:57:06;;;;;;;77.80;34.90;;;;;;;9.53;100.00;99399.90;214643;1291;140873;-86
2023/10/28 19:02:06;;;;;;;63.10;34.10;;;;;;;9.54;100.00;99402.41;215116;1290;139241;-86
2023/10/28 19:07:08;;;;;;;61.90;32.60;;;;;;;9.55;100.00;99408.38;214484;1289;140371;-85
2023/10/28 19:12:09;;;;;;;72.40;35.10;;;;;;;9.53;100.00;99410.42;215716;1288;139290;-85
2023/10/28 19:17:10;;;;;;;50.60;26.60;;;;;;;9.54;100.00;99420.30;214622;1286;140474;-86
2023/10/28 19:22:11;;;;;;;65.70;33.20;;;;;;;9.54;100.00;99425.71;214791;1288;139133;-85
2023/10/28 19:27:11;;;;;;;67.60;33.40;;;;;;;9.52;100.00;99424.46;214571;1291;139874;-85
2023/10/28 19:32:12;;;;;;;56.60;29.10;;;;;;;9.54;100.00;99426.83;215006;1289;139286;-85
2023/10/28 19:37:13;;;;;;;54.00;27.80;;;;;;;9.53;100.00;99429.17;214278;1285;140299;-85
2023/10/28 19:42:14;;;;;;;48.60;28.20;;;;;;;9.51;100.00;99429.19;214918;1285;138848;-85
2023/10/28 19:47:15;;;;;;;56.90;29.50;;;;;;;9.54;100.00;99434.90;214609;1286;140455;-86
2023/10/28 19:52:15;;;;;;;125.40;68.90;;;;;;;9.55;100.00;99434.12;215054;1291;138640;-86
2023/10/28 19:57:16;;;;;;;87.80;41.60;;;;;;;9.53;100.00;99435.38;214379;1291;140326;-85
2023/10/28 20:02:18;;;;;;;175.10;68.70;;;;;;;9.52;100.00;99432.48;214875;1286;138691;-86
2023/10/28 20:07:19;;;;;;;131.30;53.10;;;;;;;9.53;100.00;99441.41;214585;1291;140770;-86
2023/10/28 20:12:20;;;;;;;89.20;37.90;;;;;;;9.54;100.00;99448.88;215564;1287;139451;-86
2023/10/28 20:17:20;;;;;;;73.70;33.50;;;;;;;9.54;100.00;99450.59;214696;1289;140577;-86
2023/10/28 20:22:21;;;;;;;72.80;35.20;;;;;;;9.56;100.00;99464.27;215026;1288;140026;-85
2023/10/28 20:27:22;;;;;;;74.10;39.20;;;;;;;9.59;100.00;99469.04;214597;1290;140493;-84
2023/10/28 20:32:22;;;;;;;68.20;35.70;;;;;;;9.58;100.00;99467.16;214937;1285;138820;-85
2023/10/28 20:37:23;;;;;;;111.20;47.60;;;;;;;9.61;100.00;99464.80;214788;1288;140333;-85
2023/10/28 20:42:23;;;;;;;62.70;34.00;;;;;;;9.60;100.00;99458.84;214888;1288;138899;-86
2023/10/28 20:47:27;;;;;;;70.40;35.30;;;;;;;9.56;100.00;99457.34;214473;1285;163340;-86
2023/10/28 20:52:27;;;;;;;79.60;36.10;;;;;;;9.52;100.00;99462.20;218789;1285;138491;-83
2023/10/28 20:57:28;;;;;;;56.80;28.90;;;;;;;9.53;100.00;99472.26;218402;1286;140088;-83
2023/10/28 21:02:29;;;;;;;61.20;30.90;;;;;;;9.55;100.00;99476.73;216826;1289;139937;-85
2023/10/28 21:07:29;;;;;;;95.10;40.20;;;;;;;9.56;100.00;99471.00;214308;1288;140226;-84
2023/10/28 21:12:30;;;;;;;83.10;36.10;;;;;;;9.53;100.00;99460.17;214961;1289;139911;-84
2023/10/28 21:17:30;;;;;;;68.00;31.70;;;;;;;9.54;100.00;99456.89;214530;1288;139734;-84
2023/10/28 21:22:31;;;;;;;60.30;30.70;;;;;;;9.52;100.00;99450.84;215262;1286;139645;-85
2023/10/28 21:27:32;;;;;;;52.10;26.20;;;;;;;9.51;100.00;99457.91;214634;1286;140867;-86
2023/10/28 21:32:32;;;;;;;42.20;24.50;;;;;;;9.52;100.00;99466.06;215207;1287;138911;-85
2023/10/28 21:37:39;;;;;;;54.40;25.80;;;;;;;9.51;100.00;99465.04;214393;1291;140738;-85
2023/10/28 21:42:40;;;;;;;56.10;28.10;;;;;;;9.49;100.00;99468.65;215127;1288;138752;-85
2023/10/28 21:47:41;;;;;;;50.50;27.10;;;;;;;9.49;100.00;99465.51;214927;1288;140549;-85
2023/10/28 21:52:41;;;;;;;52.80;27.10;;;;;;;9.48;100.00;99462.45;215665;1285;99401;-84
2023/10/28 21:57:41;;;;;;;57.10;29.60;;;;;;;9.49;100.00;99464.80;215103;1290;140089;-85
2023/10/28 22:02:42;;;;;;;57.80;29.60;;;;;;;9.51;100.00;99464.81;215468;1291;141805;-84
2023/10/28 22:07:44;;;;;;;55.60;29.50;;;;;;;9.53;100.00;99469.59;215180;1291;140492;-85
2023/10/28 22:12:46;;;;;;;58.30;30.90;;;;;;;9.55;100.00;99467.39;215258;1288;139692;-85
2023/10/28 22:17:47;;;;;;;57.70;31.40;;;;;;;9.56;100.00;99468.96;215276;1286;142526;-84
2023/10/28 22:22:48;;;;;;;53.60;27.60;;;;;;;9.58;100.00;99473.75;216209;1288;98396;-84
2023/10/28 22:27:48;;;;;;;53.00;27.70;;;;;;;9.61;100.00;99481.13;215337;1291;139915;-84